createdAt,value
2022-10-16T00:01:28.009Z,81.60
2022-10-16T00:03:55.812Z,80.90
2022-10-16T00:06:22.758Z,80.60
2022-10-16T00:08:49.909Z,81.00
2022-10-16T00:11:26.904Z,80.90
2022-10-16T00:13:56.133Z,81.20
2022-10-16T00:16:22.734Z,81.40
2022-10-16T00:18:49.344Z,81.00
2022-10-16T00:21:17.390Z,81.60
2022-10-16T00:23:44.013Z,81.10
2022-10-16T00:26:13.525Z,81.50
2022-10-16T00:28:40.705Z,82.50
2022-10-16T00:31:08.977Z,82.20
2022-10-16T00:33:36.431Z,81.80
2022-10-16T00:36:03.741Z,81.80
2022-10-16T00:38:30.430Z,82.20
2022-10-16T00:40:57.252Z,82.20
2022-10-16T00:43:33.181Z,81.60
2022-10-16T00:46:00.701Z,81.90
2022-10-16T00:48:27.352Z,81.80
2022-10-16T00:50:54.425Z,82.10
2022-10-16T00:53:22.300Z,81.40
2022-10-16T00:55:48.924Z,81.50
2022-10-16T00:58:15.603Z,82.00
2022-10-16T01:00:42.227Z,81.70
2022-10-16T01:03:27.772Z,80.80
2022-10-16T01:06:00.716Z,81.00
2022-10-16T01:08:34.889Z,81.80
2022-10-16T01:11:06.396Z,81.20
2022-10-16T01:13:36.672Z,80.90
2022-10-16T01:16:09.582Z,81.50
2022-10-16T01:18:47.176Z,80.20
2022-10-16T01:21:16.594Z,81.10
2022-10-16T01:23:43.211Z,81.70
2022-10-16T01:26:36.305Z,82.20
2022-10-16T01:29:08.284Z,81.90
2022-10-16T01:31:37.421Z,80.90
2022-10-16T01:34:09.108Z,81.10
2022-10-16T01:36:41.835Z,81.10
2022-10-16T01:39:10.610Z,80.90
2022-10-16T01:41:43.345Z,81.60
2022-10-16T01:44:17.769Z,81.70
2022-10-16T01:46:46.803Z,81.60
2022-10-16T01:49:14.243Z,82.10
2022-10-16T01:51:41.537Z,81.90
2022-10-16T01:54:09.641Z,81.90
2022-10-16T01:56:37.178Z,81.60
2022-10-16T01:59:07.995Z,80.30
2022-10-16T02:01:36.035Z,81.10
2022-10-16T02:04:05.288Z,83.50
2022-10-16T02:06:32.872Z,83.30
2022-10-16T02:09:00.084Z,83.40
2022-10-16T02:11:26.818Z,83.00
2022-10-16T02:13:59.485Z,83.30
2022-10-16T02:16:45.600Z,83.10
2022-10-16T02:19:13.689Z,83.10
2022-10-16T02:21:45.761Z,83.10
2022-10-16T02:24:19.091Z,83.00
2022-10-16T02:27:04.271Z,82.90
2022-10-16T02:29:31.771Z,83.10
2022-10-16T02:32:03.413Z,83.40
2022-10-16T02:34:32.231Z,82.70
2022-10-16T02:36:59.767Z,82.30
2022-10-16T02:39:28.145Z,82.20
2022-10-16T02:41:54.738Z,82.50
2022-10-16T02:44:21.365Z,82.50
2022-10-16T02:46:47.971Z,82.20
2022-10-16T02:49:14.582Z,82.40
2022-10-16T02:51:41.184Z,82.50
2022-10-16T02:54:07.924Z,82.60
2022-10-16T02:56:34.624Z,82.40
2022-10-16T02:59:01.245Z,82.80
2022-10-16T03:01:27.875Z,82.90
2022-10-16T03:03:54.581Z,82.90
2022-10-16T03:06:21.269Z,82.60
2022-10-16T03:08:47.901Z,82.60
2022-10-16T03:11:14.511Z,82.20
2022-10-16T03:13:41.134Z,82.00
2022-10-16T03:16:07.757Z,81.60
2022-10-16T03:18:34.377Z,81.80
2022-10-16T03:21:01.192Z,81.50
2022-10-16T03:23:27.881Z,82.00
2022-10-16T03:25:54.969Z,82.30
2022-10-16T03:28:21.625Z,83.70
2022-10-16T03:30:48.339Z,84.00
2022-10-16T03:33:14.946Z,84.70
2022-10-16T03:35:41.553Z,84.40
2022-10-16T03:38:08.275Z,84.10
2022-10-16T03:40:34.993Z,84.20
2022-10-16T03:43:02.320Z,83.80
2022-10-16T03:45:29.058Z,84.10
2022-10-16T03:47:55.863Z,83.60
2022-10-16T03:50:22.456Z,83.70
2022-10-16T03:52:50.169Z,83.30
2022-10-16T03:55:16.807Z,83.40
2022-10-16T03:57:43.461Z,83.20
2022-10-16T04:00:10.652Z,82.70
2022-10-16T04:02:40.177Z,83.20
2022-10-16T04:05:07.063Z,83.10
2022-10-16T04:07:33.756Z,83.40
2022-10-16T04:10:00.435Z,83.80
2022-10-16T04:12:27.741Z,84.00
2022-10-16T04:14:54.366Z,83.30
2022-10-16T04:17:21.102Z,84.30
2022-10-16T04:19:47.726Z,84.40
2022-10-16T04:22:14.491Z,84.20
2022-10-16T04:24:41.253Z,84.30
2022-10-16T04:27:07.968Z,84.80
2022-10-16T04:29:34.686Z,84.00
2022-10-16T04:32:01.476Z,84.80
2022-10-16T04:34:28.217Z,84.90
2022-10-16T04:36:54.956Z,84.90
2022-10-16T04:39:21.728Z,84.70
2022-10-16T04:41:50.560Z,84.80
2022-10-16T04:44:17.234Z,84.70
2022-10-16T04:46:45.263Z,84.40
2022-10-16T04:49:12.012Z,84.30
2022-10-16T04:51:38.619Z,84.60
2022-10-16T04:54:05.348Z,84.30
2022-10-16T04:56:32.000Z,84.60
2022-10-16T04:58:58.701Z,84.30
2022-10-16T05:01:25.420Z,84.60
2022-10-16T05:03:52.159Z,84.50
2022-10-16T05:06:18.917Z,84.30
2022-10-16T05:08:45.590Z,84.10
2022-10-16T05:11:12.331Z,84.30
2022-10-16T05:13:39.070Z,84.40
2022-10-16T05:16:05.961Z,84.60
2022-10-16T05:18:32.564Z,84.70
2022-10-16T05:20:59.248Z,84.40
2022-10-16T05:23:25.856Z,84.50
2022-10-16T05:25:53.155Z,84.20
2022-10-16T05:28:19.967Z,84.60
2022-10-16T05:30:46.676Z,84.30
2022-10-16T05:33:13.309Z,83.90
2022-10-16T05:35:39.926Z,83.40
2022-10-16T05:38:06.648Z,83.60
2022-10-16T05:40:33.255Z,84.80
2022-10-16T05:42:59.865Z,84.90
2022-10-16T05:45:26.494Z,85.40
2022-10-16T05:47:53.203Z,85.10
2022-10-16T05:50:19.956Z,84.70
2022-10-16T05:52:46.681Z,85.00
2022-10-16T05:55:13.318Z,84.50
2022-10-16T05:57:39.992Z,84.50
2022-10-16T06:00:06.860Z,84.70
2022-10-16T06:02:39.607Z,84.30
2022-10-16T06:05:06.347Z,84.40
2022-10-16T06:07:35.000Z,84.40
2022-10-16T06:10:01.600Z,84.30
2022-10-16T06:12:28.247Z,84.20
2022-10-16T06:14:54.952Z,84.10
2022-10-16T06:17:21.721Z,84.90
2022-10-16T06:19:48.336Z,84.80
2022-10-16T06:22:14.959Z,84.50
2022-10-16T06:24:41.555Z,84.60
2022-10-16T06:27:08.154Z,84.50
2022-10-16T06:29:34.907Z,85.20
2022-10-16T06:32:01.638Z,85.00
2022-10-16T06:34:28.295Z,84.90
2022-10-16T06:36:55.004Z,84.40
2022-10-16T06:39:21.619Z,84.10
2022-10-16T06:41:48.318Z,84.30
2022-10-16T06:44:18.073Z,84.60
2022-10-16T06:46:44.667Z,84.70
2022-10-16T06:49:11.516Z,84.40
2022-10-16T06:51:43.172Z,84.20
2022-10-16T06:54:10.412Z,84.50
2022-10-16T06:56:37.473Z,84.20
2022-10-16T06:59:04.237Z,84.00
2022-10-16T07:01:31.343Z,83.60
2022-10-16T07:03:58.303Z,82.80
2022-10-16T07:06:25.821Z,83.70
2022-10-16T07:08:53.026Z,83.10
2022-10-16T07:11:21.003Z,83.20
2022-10-16T07:13:51.066Z,82.90
2022-10-16T07:16:22.944Z,82.70
2022-10-16T07:18:50.304Z,83.00
2022-10-16T07:21:17.959Z,83.00
2022-10-16T07:23:44.611Z,82.60
2022-10-16T07:26:11.750Z,82.80
2022-10-16T07:28:38.852Z,82.60
2022-10-16T07:31:07.751Z,82.40
2022-10-16T07:33:34.976Z,82.20
2022-10-16T07:36:01.624Z,81.90
2022-10-16T07:38:28.642Z,81.60
2022-10-16T07:40:59.224Z,80.80
2022-10-16T07:43:26.436Z,81.00
2022-10-16T07:48:25.363Z,80.50
2022-10-16T07:50:51.946Z,80.70
2022-10-16T07:53:20.540Z,80.00
2022-10-16T07:55:48.952Z,79.60
2022-10-16T07:58:15.543Z,79.10
2022-10-16T08:00:42.165Z,78.90
2022-10-16T08:03:09.212Z,78.50
2022-10-16T08:05:35.855Z,78.90
2022-10-16T08:08:02.865Z,79.20
2022-10-16T08:10:30.121Z,79.70
2022-10-16T08:12:56.789Z,80.20
2022-10-16T08:15:23.567Z,79.90
2022-10-16T08:18:00.031Z,79.80
2022-10-16T08:20:27.908Z,79.50
2022-10-16T08:22:55.307Z,79.60
2022-10-16T08:25:22.373Z,79.40
2022-10-16T08:27:49.249Z,78.60
2022-10-16T08:30:16.129Z,77.80
2022-10-16T08:32:42.977Z,77.60
2022-10-16T08:35:10.370Z,77.00
2022-10-16T08:37:37.231Z,76.60
2022-10-16T08:40:04.295Z,76.50
2022-10-16T08:42:45.004Z,76.30
2022-10-16T08:45:11.639Z,76.00
2022-10-16T08:47:38.232Z,75.20
2022-10-16T08:50:12.754Z,75.60
2022-10-16T08:52:41.105Z,75.10
2022-10-16T08:55:07.783Z,75.40
2022-10-16T08:57:34.426Z,75.70
2022-10-16T09:00:06.250Z,75.80
2022-10-16T09:02:41.686Z,75.40
2022-10-16T09:05:20.626Z,75.00
2022-10-16T09:07:47.238Z,74.20
2022-10-16T09:10:22.923Z,72.70
2022-10-16T09:12:56.211Z,72.10
2022-10-16T09:15:32.102Z,69.40
2022-10-16T09:18:03.331Z,69.50
2022-10-16T09:20:36.547Z,69.30
2022-10-16T09:23:05.892Z,69.60
2022-10-16T09:25:33.423Z,69.60
2022-10-16T09:28:00.085Z,69.60
2022-10-16T09:30:28.606Z,69.40
2022-10-16T09:32:55.871Z,69.10
2022-10-16T09:35:34.258Z,69.40
2022-10-16T09:38:00.946Z,69.10
2022-10-16T09:40:29.495Z,69.40
2022-10-16T09:43:01.872Z,68.90
2022-10-16T09:45:28.490Z,69.00
2022-10-16T09:47:57.728Z,68.80
2022-10-16T09:50:27.325Z,69.60
2022-10-16T09:53:06.952Z,69.40
2022-10-16T09:55:33.576Z,69.30
2022-10-16T09:58:00.179Z,69.50
2022-10-16T10:00:27.144Z,69.60
2022-10-16T10:05:23.795Z,68.40
2022-10-16T10:07:58.240Z,68.70
2022-10-16T10:10:28.831Z,68.80
2022-10-16T10:12:56.258Z,68.50
2022-10-16T10:15:24.785Z,67.60
2022-10-16T10:17:52.710Z,66.30
2022-10-16T10:20:22.478Z,65.90
2022-10-16T10:22:49.173Z,65.40
2022-10-16T10:25:19.838Z,65.40
2022-10-16T10:27:54.411Z,64.60
2022-10-16T10:30:20.978Z,64.10
2022-10-16T10:32:54.501Z,62.50
2022-10-16T10:35:44.109Z,60.80
2022-10-16T10:38:21.435Z,58.30
2022-10-16T10:41:02.647Z,59.00
2022-10-16T10:43:40.873Z,59.00
2022-10-16T10:46:10.549Z,53.00
2022-10-16T10:48:37.203Z,52.70
2022-10-16T10:51:13.613Z,50.50
2022-10-16T10:53:52.305Z,50.50
2022-10-16T10:56:37.588Z,51.00
2022-10-16T10:59:10.479Z,48.50
2022-10-16T11:01:37.082Z,48.20
2022-10-16T11:04:20.079Z,49.40
2022-10-16T11:06:49.685Z,49.20
2022-10-16T11:09:18.768Z,49.60
2022-10-16T11:11:49.989Z,50.50
2022-10-16T11:14:36.885Z,49.60
2022-10-16T11:17:07.707Z,49.70
2022-10-16T11:19:52.927Z,49.30
2022-10-16T11:22:35.192Z,50.20
2022-10-16T11:25:17.291Z,49.90
2022-10-16T11:27:45.734Z,47.80
2022-10-16T11:30:15.728Z,47.50
2022-10-16T11:33:04.404Z,49.70
2022-10-16T11:35:50.015Z,45.70
2022-10-16T11:38:24.773Z,46.80
2022-10-16T11:40:52.632Z,46.80
2022-10-16T11:43:33.499Z,48.30
2022-10-16T11:46:06.487Z,48.10
2022-10-16T11:48:44.735Z,48.00
2022-10-16T11:51:25.549Z,48.50
2022-10-16T11:53:56.321Z,50.70
2022-10-16T11:56:23.053Z,49.80
2022-10-16T11:58:49.639Z,49.20
2022-10-16T12:01:19.299Z,48.10
2022-10-16T12:03:51.422Z,48.50
2022-10-16T12:06:26.746Z,47.00
2022-10-16T12:08:54.432Z,47.00
2022-10-16T12:11:31.802Z,46.10
2022-10-16T12:14:05.754Z,46.40
2022-10-16T12:16:32.344Z,48.00
2022-10-16T12:19:16.314Z,47.10
2022-10-16T12:21:43.559Z,45.10
2022-10-16T12:24:27.627Z,45.50
2022-10-16T12:26:54.243Z,45.40
2022-10-16T12:29:41.124Z,44.70
2022-10-16T12:32:44.975Z,45.00
2022-10-16T12:35:24.822Z,44.00
2022-10-16T12:37:52.080Z,43.70
2022-10-16T12:40:24.877Z,44.30
2022-10-16T12:42:51.562Z,43.20
2022-10-16T12:45:32.363Z,43.30
2022-10-16T12:47:59.815Z,43.00
2022-10-16T12:50:46.704Z,43.10
2022-10-16T12:53:20.860Z,42.60
2022-10-16T12:55:58.823Z,43.30
2022-10-16T12:58:34.159Z,43.10
2022-10-16T13:01:21.019Z,42.30
2022-10-16T13:04:02.062Z,43.00
2022-10-16T13:06:51.533Z,42.60
2022-10-16T13:09:24.203Z,42.40
2022-10-16T13:12:05.587Z,43.10
2022-10-16T13:14:50.455Z,42.90
2022-10-16T13:17:17.698Z,42.30
2022-10-16T13:19:50.345Z,42.50
2022-10-16T13:22:31.752Z,43.00
2022-10-16T13:25:01.346Z,43.00
2022-10-16T13:27:46.756Z,43.20
2022-10-16T13:30:21.576Z,42.70
2022-10-16T13:32:49.649Z,42.00
2022-10-16T13:35:20.562Z,41.50
2022-10-16T13:37:47.169Z,41.30
2022-10-16T13:40:23.703Z,41.40
2022-10-16T13:42:51.255Z,42.10
2022-10-16T13:45:18.676Z,41.30
2022-10-16T13:47:45.296Z,41.30
2022-10-16T13:50:16.741Z,41.40
2022-10-16T13:52:43.739Z,40.80
2022-10-16T13:55:18.628Z,40.10
2022-10-16T13:57:45.667Z,38.60
2022-10-16T14:00:19.686Z,36.70
2022-10-16T14:02:50.577Z,36.30
2022-10-16T14:05:17.293Z,34.70
2022-10-16T14:07:43.936Z,33.80
2022-10-16T14:10:22.571Z,33.20
2022-10-16T14:13:00.320Z,31.50
2022-10-16T14:15:27.101Z,31.50
2022-10-16T14:17:54.376Z,31.90
2022-10-16T14:20:25.273Z,32.20
2022-10-16T14:22:59.351Z,32.60
2022-10-16T14:25:28.640Z,33.00
2022-10-16T14:28:06.174Z,33.10
2022-10-16T14:30:34.844Z,33.20
2022-10-16T14:33:06.046Z,34.10
2022-10-16T14:35:34.324Z,35.20
2022-10-16T14:38:02.550Z,35.10
2022-10-16T14:40:33.293Z,34.90
2022-10-16T14:43:00.353Z,35.50
2022-10-16T14:45:31.988Z,36.10
2022-10-16T14:47:59.854Z,37.00
2022-10-16T14:50:26.503Z,38.00
2022-10-16T14:52:53.152Z,38.90
2022-10-16T14:55:20.296Z,39.60
2022-10-16T14:57:47.559Z,41.20
2022-10-16T15:00:22.365Z,41.80
2022-10-16T15:02:50.056Z,42.70
2022-10-16T15:05:16.756Z,43.50
2022-10-16T15:07:43.848Z,44.10
2022-10-16T15:10:10.731Z,43.60
2022-10-16T15:12:37.382Z,44.20
2022-10-16T15:15:16.424Z,44.60
2022-10-16T15:17:43.016Z,43.70
2022-10-16T15:20:09.782Z,42.30
2022-10-16T15:22:36.381Z,41.60
2022-10-16T15:25:03.581Z,41.10
2022-10-16T15:27:30.183Z,39.80
2022-10-16T15:29:56.781Z,40.40
2022-10-16T15:32:23.403Z,40.60
2022-10-16T15:34:50.046Z,40.60
2022-10-16T15:37:16.633Z,40.60
2022-10-16T15:39:43.230Z,41.10
2022-10-16T15:42:10.496Z,41.40
2022-10-16T15:44:37.284Z,42.20
2022-10-16T15:47:04.143Z,43.50
2022-10-16T15:49:30.747Z,45.20
2022-10-16T15:51:57.367Z,46.20
2022-10-16T15:54:24.040Z,48.10
2022-10-16T15:56:50.695Z,48.90
2022-10-16T15:59:20.705Z,50.30
2022-10-16T16:01:47.404Z,51.60
2022-10-16T16:04:31.980Z,52.80
2022-10-16T16:07:02.026Z,53.80
2022-10-16T16:09:31.416Z,55.40
2022-10-16T16:12:01.283Z,56.40
2022-10-16T16:14:28.892Z,57.60
2022-10-16T16:16:55.865Z,58.00
2022-10-16T16:19:22.588Z,57.90
2022-10-16T16:21:49.964Z,58.70
2022-10-16T16:24:16.620Z,59.80
2022-10-16T16:26:44.451Z,59.50
2022-10-16T16:29:15.268Z,59.20
2022-10-16T16:31:42.597Z,60.30
2022-10-16T16:34:09.353Z,61.80
2022-10-16T16:36:36.368Z,62.30
2022-10-16T16:39:03.537Z,62.90
2022-10-16T16:41:30.988Z,63.10
2022-10-16T16:44:08.511Z,64.00
2022-10-16T16:46:35.285Z,63.50
2022-10-16T16:49:02.107Z,63.00
2022-10-16T16:51:28.797Z,64.00
2022-10-16T16:53:55.562Z,64.70
2022-10-16T16:56:22.828Z,65.30
2022-10-16T16:58:50.322Z,65.70
2022-10-16T17:01:21.320Z,66.00
2022-10-16T17:03:50.713Z,66.70
2022-10-16T17:06:20.628Z,66.90
2022-10-16T17:08:48.091Z,66.90
2022-10-16T17:11:16.021Z,66.50
2022-10-16T17:13:42.781Z,66.60
2022-10-16T17:16:09.440Z,66.50
2022-10-16T17:18:36.251Z,65.90
2022-10-16T17:21:04.482Z,65.80
2022-10-16T17:23:31.425Z,66.10
2022-10-16T17:26:03.016Z,67.00
2022-10-16T17:28:29.748Z,68.20
2022-10-16T17:30:56.417Z,68.30
2022-10-16T17:33:23.023Z,68.90
2022-10-16T17:35:49.634Z,70.30
2022-10-16T17:38:16.723Z,70.60
2022-10-16T17:40:43.705Z,71.30
2022-10-16T17:43:10.324Z,71.50
2022-10-16T17:45:37.404Z,71.60
2022-10-16T17:48:06.010Z,71.10
2022-10-16T17:50:32.649Z,71.10
2022-10-16T17:52:59.268Z,71.40
2022-10-16T17:55:27.244Z,71.70
2022-10-16T17:57:54.117Z,72.40
2022-10-16T18:00:21.197Z,73.80
2022-10-16T18:02:50.932Z,73.00
2022-10-16T18:05:17.541Z,73.50
2022-10-16T18:07:44.575Z,73.10
2022-10-16T18:10:12.262Z,72.90
2022-10-16T18:12:39.448Z,72.70
2022-10-16T18:15:06.481Z,72.40
2022-10-16T18:17:37.535Z,72.20
2022-10-16T18:20:07.671Z,72.40
2022-10-16T18:22:37.997Z,72.90
2022-10-16T18:25:05.470Z,72.30
2022-10-16T18:27:32.837Z,73.60
2022-10-16T18:30:00.035Z,74.30
2022-10-16T18:32:27.381Z,74.20
2022-10-16T18:34:54.490Z,74.20
2022-10-16T18:37:21.326Z,73.40
2022-10-16T18:39:50.907Z,73.60
2022-10-16T18:42:18.047Z,73.50
2022-10-16T18:44:46.882Z,73.70
2022-10-16T18:47:15.688Z,74.00
2022-10-16T18:49:44.069Z,74.30
2022-10-16T18:52:10.669Z,74.40
2022-10-16T18:54:37.553Z,74.20
2022-10-16T18:57:04.420Z,73.80
2022-10-16T18:59:31.106Z,74.30
2022-10-16T19:01:58.059Z,74.50
2022-10-16T19:04:24.915Z,74.20
2022-10-16T19:06:52.881Z,74.60
2022-10-16T19:09:20.892Z,75.10
2022-10-16T19:11:48.177Z,75.00
2022-10-16T19:14:15.604Z,74.30
2022-10-16T19:16:45.212Z,74.00
2022-10-16T19:19:14.056Z,73.30
2022-10-16T19:21:41.142Z,74.10
2022-10-16T19:24:08.819Z,73.80
2022-10-16T19:26:38.171Z,74.40
2022-10-16T19:29:08.209Z,74.60
2022-10-16T19:31:34.855Z,74.50
2022-10-16T19:34:03.196Z,74.80
2022-10-16T19:36:31.038Z,75.30
2022-10-16T19:38:58.990Z,75.50
2022-10-16T19:41:26.225Z,75.00
2022-10-16T19:43:53.088Z,75.00
2022-10-16T19:46:24.321Z,74.80
2022-10-16T19:48:54.556Z,74.70
2022-10-16T19:51:21.160Z,74.20
2022-10-16T19:53:47.860Z,74.30
2022-10-16T19:56:18.655Z,73.70
2022-10-16T19:58:45.787Z,73.60
2022-10-16T20:01:13.139Z,74.30
2022-10-16T20:03:40.338Z,74.20
2022-10-16T20:06:07.654Z,73.80
2022-10-16T20:08:35.290Z,74.30
2022-10-16T20:11:02.697Z,74.40
2022-10-16T20:13:29.837Z,74.20
2022-10-16T20:15:56.840Z,73.90
2022-10-16T20:18:23.513Z,73.70
2022-10-16T20:20:51.219Z,74.70
2022-10-16T20:23:21.579Z,74.00
2022-10-16T20:25:48.240Z,74.10
2022-10-16T20:28:15.734Z,74.30
2022-10-16T20:30:43.707Z,74.00
2022-10-16T20:33:10.988Z,73.50
2022-10-16T20:35:38.604Z,74.20
2022-10-16T20:38:05.239Z,74.30
2022-10-16T20:40:34.559Z,74.50
2022-10-16T20:43:01.478Z,73.60
2022-10-16T20:45:28.120Z,72.90
2022-10-16T20:47:54.727Z,73.40
2022-10-16T20:50:21.440Z,74.00
2022-10-16T20:55:19.634Z,74.30
2022-10-16T20:57:46.244Z,74.30
2022-10-16T21:00:13.143Z,74.10
2022-10-16T21:02:39.772Z,74.10
2022-10-16T21:05:06.562Z,74.70
2022-10-16T21:07:33.185Z,74.40
2022-10-16T21:09:59.796Z,74.30
2022-10-16T21:12:26.795Z,74.90
2022-10-16T21:15:13.268Z,74.50
2022-10-16T21:17:40.509Z,73.90
2022-10-16T21:20:07.406Z,74.10
2022-10-16T21:22:34.094Z,73.60
2022-10-16T21:25:00.728Z,73.90
2022-10-16T21:27:27.426Z,73.70
2022-10-16T21:29:54.405Z,74.30
2022-10-16T21:32:21.157Z,74.50
2022-10-16T21:34:48.204Z,74.40
2022-10-16T21:37:14.865Z,74.10
2022-10-16T21:39:41.484Z,73.90
2022-10-16T21:42:08.162Z,74.00
2022-10-16T21:44:34.901Z,74.20
2022-10-16T21:47:01.508Z,74.40
2022-10-16T21:49:28.234Z,74.00
2022-10-16T21:51:54.891Z,73.90
2022-10-16T21:54:23.117Z,73.70
2022-10-16T21:56:49.799Z,73.40
2022-10-16T21:59:16.458Z,74.10
2022-10-16T22:01:43.267Z,73.80
2022-10-16T22:04:10.985Z,73.90
2022-10-16T22:06:37.606Z,73.80
2022-10-16T22:09:04.262Z,73.90
2022-10-16T22:11:36.572Z,73.50
2022-10-16T22:14:29.492Z,73.80
2022-10-16T22:16:56.093Z,74.10
2022-10-16T22:19:22.785Z,74.60
2022-10-16T22:21:51.684Z,74.70
2022-10-16T22:24:18.622Z,75.10
2022-10-16T22:26:45.329Z,74.80
2022-10-16T22:29:13.152Z,75.50
2022-10-16T22:31:39.776Z,75.00
2022-10-16T22:34:06.523Z,75.10
2022-10-16T22:36:33.513Z,75.20
2022-10-16T22:39:00.367Z,75.20
2022-10-16T22:41:26.998Z,75.70
2022-10-16T22:43:54.001Z,75.50
2022-10-16T22:46:24.868Z,75.80
2022-10-16T22:48:51.554Z,75.70
2022-10-16T22:51:18.978Z,75.70
2022-10-16T22:53:46.402Z,76.00
2022-10-16T22:56:13.700Z,75.00
2022-10-16T22:58:40.537Z,74.30
2022-10-16T23:01:18.035Z,75.20
2022-10-16T23:03:44.654Z,75.40
2022-10-16T23:06:11.316Z,75.70
2022-10-16T23:08:37.909Z,76.00
2022-10-16T23:11:05.249Z,75.30
2022-10-16T23:13:31.879Z,74.30
2022-10-16T23:15:58.517Z,74.80
2022-10-16T23:18:25.175Z,75.50
2022-10-16T23:20:51.768Z,76.70
2022-10-16T23:23:18.381Z,76.20
2022-10-16T23:25:46.657Z,76.30
2022-10-16T23:28:16.828Z,76.10
2022-10-16T23:30:43.437Z,75.20
2022-10-16T23:33:10.059Z,75.90
2022-10-16T23:35:39.343Z,75.60
2022-10-16T23:38:05.959Z,75.90
2022-10-16T23:40:32.589Z,75.80
2022-10-16T23:42:59.217Z,75.30
2022-10-16T23:45:25.808Z,75.40
2022-10-16T23:47:52.425Z,75.60
2022-10-16T23:50:19.045Z,76.10
2022-10-16T23:52:45.648Z,75.60
2022-10-16T23:55:12.441Z,75.00
2022-10-16T23:57:39.066Z,74.70
